Terminal Aerodrome Forecast
Issued by NWS

Home | Current Version | Previous Version | Graphics & Text | Print | Product List | Glossary On
Versions: 1 2 3 4 5 6 7 8 9 10 11 12 13 14 15 16
000
FTUS43 KLSX 230052 AAA
TAFSUS
TAF AMD
KSUS 230052Z 2301/2324 25008KT P6SM FEW050
     FM230300 26004KT P6SM VCTS SCT050CB
      TEMPO 2304/2306 3SM TSRA OVC025CB
     FM230700 25004KT P6SM BKN050
     FM231200 31004KT P6SM BKN050
     FM231900 VRB03KT P6SM SCT200=

USA.gov is the U.S. government's official web portal to all federal, state and local government web resources and services.